LSZL Airport Information

Runway Information
Runway 08C Length 2297 ft width 98 ft
Elevation 0 ft Threshold 0 ft Heading 0
Runway 26C Length 2297 ft Width 98 ft
Elevation 0 ft Threshold 0 ft Heading 0
Runway 08L Length 2625 ft width 75 ft
Elevation 650 ft Threshold 0 ft Heading 0
Runway 26R Length 2625 ft Width 75 ft
Elevation 650 ft Threshold 0 ft Heading 0
Airport Frequencies
Airport Navaids
Airport Weather Information & NOTAM
ADDS - METARS form results

(1603 UTC 28 May 2020)
Data provider http://aviationweather.gov/metar/data/
 
METAR text: LSZL 281550Z AUTO 25005KT 210V270 9999NDV FEW120 25/12 Q1019 RMK
Conditions at: LSZL (LOCARNO , CH) observed 1550 UTC 28 May 2020
Temperature: 25.0°C (77°F)
Dewpoint: 12.0°C (54°F) [RH = 44%]
Pressure (altimeter): 30.09 inches Hg (1019.0 mb)
Winds: from the WSW (250 degrees) at 6 MPH (5 knots; 2.6 m/s)
Visibility: missing
Ceiling: at least 12,000 feet AGL
Clouds: few clouds at 12000 feet AGL
Weather: no significant weather observed at this time

METAR text: LSZL 281520Z AUTO 25006KT 9999NDV FEW120 24/12 Q1019 RMK
Conditions at: LSZL (LOCARNO , CH) observed 1520 UTC 28 May 2020
Temperature: 24.0°C (75°F)
Dewpoint: 12.0°C (54°F) [RH = 47%]
Pressure (altimeter): 30.09 inches Hg (1019.0 mb)
Winds: from the WSW (250 degrees) at 7 MPH (6 knots; 3.1 m/s)
Visibility: missing
Ceiling: at least 12,000 feet AGL
Clouds: few clouds at 12000 feet AGL
Weather: no significant weather observed at this time

Forecast for: LSZL (LOCARNO , CH)
Text: TAF LSZL 281125Z 2812/2821 25005KT 9999 FEW070
Forecast period: 1200 to 1700 UTC 28 May 2020
Forecast type: FROM: standard forecast or significant change
Winds: from the WSW (250 degrees) at 6 MPH (5 knots; 2.6 m/s)
Visibility: 6 or more miles 10+ km)
Ceiling: at least 12,000 feet AGL
Clouds: few clouds at 7000 feet AGL
Weather: no significant weather forecast for this period
Text: BECMG 2817/2820 CAVOK
Forecast period: 1700 to 2100 UTC 28 May 2020
Forecast type: BECOMING: Conditions expected to become as follows by 2000 UTC 28 May 2020
Winds: from the WSW (250 degrees) at 6 MPH (5 knots; 2.6 m/s)
Visibility: 6 or more miles 10+ km)
Ceiling: unknown
Clouds: missing
Weather: NSW  (no significant weather)